createdAt,value
2018-12-05T00:00:08.817Z,893.28
2018-12-05T00:01:08.802Z,893.23
2018-12-05T00:02:08.790Z,893.29
2018-12-05T00:03:08.763Z,893.31
2018-12-05T00:04:08.753Z,893.35
2018-12-05T00:05:08.750Z,893.38
2018-12-05T00:06:08.725Z,893.38
2018-12-05T00:07:08.707Z,893.40
2018-12-05T00:08:08.693Z,893.40
2018-12-05T00:09:08.673Z,893.41
2018-12-05T00:10:08.657Z,893.41
2018-12-05T00:11:08.642Z,893.43
2018-12-05T00:12:08.630Z,893.43
2018-12-05T00:13:08.614Z,893.43
2018-12-05T00:14:08.602Z,893.48
2018-12-05T00:15:08.585Z,893.50
2018-12-05T00:16:08.568Z,893.48
2018-12-05T00:17:08.552Z,893.47
2018-12-05T00:18:08.532Z,893.50
2018-12-05T00:19:08.516Z,893.50
2018-12-05T00:20:08.509Z,893.53
2018-12-05T00:21:08.485Z,893.53
2018-12-05T00:22:08.467Z,893.53
2018-12-05T00:23:08.457Z,893.53
2018-12-05T00:24:08.975Z,893.52
2018-12-05T00:25:08.419Z,893.48
2018-12-05T00:26:08.407Z,893.53
2018-12-05T00:27:08.404Z,893.47
2018-12-05T00:28:08.376Z,893.49
2018-12-05T00:29:08.358Z,893.48
2018-12-05T00:30:08.348Z,893.48
2018-12-05T00:31:08.323Z,893.55
2018-12-05T00:32:08.311Z,893.51
2018-12-05T00:33:08.292Z,893.51
2018-12-05T00:34:08.277Z,893.55
2018-12-05T00:35:08.260Z,893.57
2018-12-05T00:36:08.255Z,893.57
2018-12-05T00:37:08.232Z,893.57
2018-12-05T00:38:08.216Z,893.60
2018-12-05T00:39:08.206Z,893.63
2018-12-05T00:40:08.187Z,893.60
2018-12-05T00:41:08.170Z,893.61
2018-12-05T00:42:08.156Z,893.65
2018-12-05T00:43:08.139Z,893.62
2018-12-05T00:44:08.121Z,893.63
2018-12-05T00:45:08.101Z,893.63
2018-12-05T00:46:08.089Z,893.61
2018-12-05T00:47:08.070Z,893.56
2018-12-05T00:48:08.054Z,893.51
2018-12-05T00:49:08.042Z,893.49
2018-12-05T00:50:08.035Z,893.43
2018-12-05T00:51:08.014Z,893.40
2018-12-05T00:52:07.992Z,893.40
2018-12-05T00:53:07.979Z,893.34
2018-12-05T00:54:07.965Z,893.33
2018-12-05T00:55:07.943Z,893.37
2018-12-05T00:56:07.933Z,893.32
2018-12-05T00:57:07.911Z,893.36
2018-12-05T00:58:07.899Z,893.35
2018-12-05T00:59:07.881Z,893.36
2018-12-05T01:00:07.866Z,893.33
2018-12-05T01:01:07.854Z,893.30
2018-12-05T01:02:07.839Z,893.33
2018-12-05T01:03:07.822Z,893.35
2018-12-05T01:04:07.813Z,893.40
2018-12-05T01:05:07.946Z,893.41
2018-12-05T01:06:07.769Z,893.44
2018-12-05T01:07:07.753Z,893.42
2018-12-05T01:08:07.771Z,893.41
2018-12-05T01:09:07.727Z,893.39
2018-12-05T01:10:07.710Z,893.40
2018-12-05T01:11:07.692Z,893.41
2018-12-05T01:12:07.679Z,893.42
2018-12-05T01:13:07.658Z,893.42
2018-12-05T01:14:07.651Z,893.44
2018-12-05T01:15:07.633Z,893.48
2018-12-05T01:16:07.617Z,893.50
2018-12-05T01:17:07.599Z,893.48
2018-12-05T01:18:07.585Z,893.46
2018-12-05T01:19:07.595Z,893.45
2018-12-05T01:20:07.546Z,893.47
2018-12-05T01:21:07.533Z,893.45
2018-12-05T01:22:07.520Z,893.43
2018-12-05T01:23:07.502Z,893.38
2018-12-05T01:24:07.484Z,893.35
2018-12-05T01:25:07.470Z,893.31
2018-12-05T01:26:07.452Z,893.29
2018-12-05T01:27:07.439Z,893.30
2018-12-05T01:28:07.420Z,893.25
2018-12-05T01:29:07.408Z,893.22
2018-12-05T01:30:07.392Z,893.15
2018-12-05T01:31:07.405Z,893.16
2018-12-05T01:32:07.358Z,893.17
2018-12-05T01:33:07.341Z,893.19
2018-12-05T01:34:07.325Z,893.16
2018-12-05T01:35:07.310Z,893.19
2018-12-05T01:36:07.296Z,893.20
2018-12-05T01:37:07.282Z,893.26
2018-12-05T01:38:07.265Z,893.26
2018-12-05T01:39:07.249Z,893.24
2018-12-05T01:40:07.235Z,893.23
2018-12-05T01:41:07.217Z,893.24
2018-12-05T01:42:07.200Z,893.27
2018-12-05T01:43:07.190Z,893.31
2018-12-05T01:44:07.170Z,893.32
2018-12-05T01:45:07.156Z,893.30
2018-12-05T01:46:07.138Z,893.31
2018-12-05T01:47:07.123Z,893.25
2018-12-05T01:48:07.109Z,893.26
2018-12-05T01:49:07.089Z,893.24
2018-12-05T01:50:07.072Z,893.28
2018-12-05T01:51:07.063Z,893.30
2018-12-05T01:52:07.036Z,893.37
2018-12-05T01:53:07.031Z,893.39
2018-12-05T01:54:07.013Z,893.41
2018-12-05T01:55:06.991Z,893.40
2018-12-05T01:56:06.980Z,893.36
2018-12-05T01:57:06.960Z,893.34
2018-12-05T01:58:06.949Z,893.32
2018-12-05T01:59:06.937Z,893.31
2018-12-05T02:00:06.936Z,893.34
2018-12-05T02:01:06.899Z,893.37
2018-12-05T02:02:06.892Z,893.36
2018-12-05T02:03:06.869Z,893.40
2018-12-05T02:04:06.850Z,893.41
2018-12-05T02:05:06.835Z,893.39
2018-12-05T02:06:06.818Z,893.34
2018-12-05T02:07:06.802Z,893.34
2018-12-05T02:08:06.786Z,893.30
2018-12-05T02:09:06.779Z,893.31
2018-12-05T02:10:06.764Z,893.35
2018-12-05T02:11:06.737Z,893.34
2018-12-05T02:12:06.725Z,893.30
2018-12-05T02:13:06.711Z,893.28
2018-12-05T02:14:06.693Z,893.27
2018-12-05T02:15:06.676Z,893.31
2018-12-05T02:16:06.663Z,893.33
2018-12-05T02:17:06.647Z,893.32
2018-12-05T02:18:06.635Z,893.34
2018-12-05T02:19:06.615Z,893.35
2018-12-05T02:20:06.600Z,893.31
2018-12-05T02:21:06.579Z,893.24
2018-12-05T02:22:06.564Z,893.23
2018-12-05T02:23:06.547Z,893.28
2018-12-05T02:24:06.530Z,893.27
2018-12-05T02:25:06.515Z,893.30
2018-12-05T02:26:06.501Z,893.31
2018-12-05T02:27:06.487Z,893.39
2018-12-05T02:28:06.472Z,893.34
2018-12-05T02:29:06.454Z,893.33
2018-12-05T02:30:06.431Z,893.32
2018-12-05T02:31:06.419Z,893.33
2018-12-05T02:32:06.406Z,893.39
2018-12-05T02:33:06.388Z,893.35
2018-12-05T02:34:06.382Z,893.39
2018-12-05T02:35:06.355Z,893.35
2018-12-05T02:36:06.345Z,893.33
2018-12-05T02:37:06.328Z,893.37
2018-12-05T02:38:06.311Z,893.36
2018-12-05T02:39:06.291Z,893.38
2018-12-05T02:40:06.275Z,893.42
2018-12-05T02:41:06.261Z,893.44
2018-12-05T02:42:06.239Z,893.41
2018-12-05T02:43:06.232Z,893.41
2018-12-05T02:44:06.216Z,893.38
2018-12-05T02:45:06.196Z,893.40
2018-12-05T02:46:06.185Z,893.40
2018-12-05T02:47:06.164Z,893.47
2018-12-05T02:48:06.146Z,893.50
2018-12-05T02:49:06.134Z,893.51
2018-12-05T02:50:06.116Z,893.48
2018-12-05T02:51:06.097Z,893.45
2018-12-05T02:52:06.085Z,893.44
2018-12-05T02:53:06.066Z,893.49
2018-12-05T02:54:06.051Z,893.51
2018-12-05T02:55:06.035Z,893.53
2018-12-05T02:56:06.021Z,893.55
2018-12-05T02:57:05.999Z,893.56
2018-12-05T02:58:05.995Z,893.58
2018-12-05T02:59:05.971Z,893.57
2018-12-05T03:00:05.954Z,893.60
2018-12-05T03:01:05.943Z,893.54
2018-12-05T03:02:05.927Z,893.54
2018-12-05T03:03:05.910Z,893.48
2018-12-05T03:04:05.891Z,893.48
2018-12-05T03:05:05.884Z,893.45
2018-12-05T03:06:05.871Z,893.52
2018-12-05T03:07:05.844Z,893.55
2018-12-05T03:08:05.829Z,893.52
2018-12-05T03:09:05.807Z,893.53
2018-12-05T03:10:05.799Z,893.49
2018-12-05T03:11:05.786Z,893.52
2018-12-05T03:12:05.764Z,893.51
2018-12-05T03:13:05.754Z,893.54
2018-12-05T03:14:05.742Z,893.52
2018-12-05T03:15:05.791Z,893.53
2018-12-05T03:16:05.700Z,893.52
2018-12-05T03:17:05.680Z,893.55
2018-12-05T03:18:05.666Z,893.56
2018-12-05T03:19:05.651Z,893.59
2018-12-05T03:20:05.635Z,893.56
2018-12-05T03:21:05.620Z,893.55
2018-12-05T03:22:05.604Z,893.56
2018-12-05T03:23:05.585Z,893.55
2018-12-05T03:24:05.567Z,893.51
2018-12-05T03:25:05.557Z,893.50
2018-12-05T03:26:05.540Z,893.51
2018-12-05T03:27:05.516Z,893.50
2018-12-05T03:28:05.511Z,893.58
2018-12-05T03:29:06.811Z,893.56
2018-12-05T03:30:05.491Z,893.58
2018-12-05T03:31:05.459Z,893.59
2018-12-05T03:32:05.441Z,893.59
2018-12-05T03:33:05.421Z,893.46
2018-12-05T03:34:05.406Z,893.45
2018-12-05T03:35:05.401Z,893.47
2018-12-05T03:36:05.372Z,893.43
2018-12-05T03:37:05.374Z,893.51
2018-12-05T03:38:05.347Z,893.57
2018-12-05T03:39:05.331Z,893.64
2018-12-05T03:40:05.308Z,893.66
2018-12-05T03:41:05.303Z,893.73
2018-12-05T03:42:05.293Z,893.73
2018-12-05T03:43:05.260Z,893.73
2018-12-05T03:44:05.246Z,893.71
2018-12-05T03:45:05.230Z,893.66
2018-12-05T03:46:05.218Z,893.66
2018-12-05T03:47:05.201Z,893.61
2018-12-05T03:48:05.182Z,893.66
2018-12-05T03:49:05.165Z,893.67
2018-12-05T03:50:05.150Z,893.66
2018-12-05T03:51:05.130Z,893.66
2018-12-05T03:52:05.113Z,893.69
2018-12-05T03:53:05.094Z,893.71
2018-12-05T03:54:05.076Z,893.70
2018-12-05T03:55:05.067Z,893.71
2018-12-05T03:56:05.050Z,893.72
2018-12-05T03:57:05.033Z,893.70
2018-12-05T03:58:05.016Z,893.74
2018-12-05T03:59:05.007Z,893.73
2018-12-05T04:00:04.984Z,893.76
2018-12-05T04:01:04.968Z,893.74
2018-12-05T04:02:04.949Z,893.76
2018-12-05T04:03:04.933Z,893.74
2018-12-05T04:04:04.919Z,893.77
2018-12-05T04:05:04.913Z,893.76
2018-12-05T04:06:04.888Z,893.78
2018-12-05T04:07:04.868Z,893.80
2018-12-05T04:08:04.858Z,893.79
2018-12-05T04:09:04.835Z,893.79
2018-12-05T04:10:04.821Z,893.74
2018-12-05T04:11:04.808Z,893.78
2018-12-05T04:12:04.783Z,893.75
2018-12-05T04:13:04.769Z,893.77
2018-12-05T04:14:04.752Z,893.81
2018-12-05T04:15:04.737Z,893.81
2018-12-05T04:16:04.715Z,893.83
2018-12-05T04:17:04.714Z,893.86
2018-12-05T04:18:04.683Z,893.88
2018-12-05T04:19:04.677Z,893.85
2018-12-05T04:20:04.656Z,893.85
2018-12-05T04:21:04.641Z,893.83
2018-12-05T04:22:04.619Z,893.80
2018-12-05T04:23:04.603Z,893.78
2018-12-05T04:24:04.591Z,893.74
2018-12-05T04:25:04.568Z,893.73
2018-12-05T04:26:04.558Z,893.69
2018-12-05T04:27:04.535Z,893.66
2018-12-05T04:28:04.529Z,893.61
2018-12-05T04:29:04.513Z,893.44
2018-12-05T04:30:04.494Z,893.36
2018-12-05T04:31:04.472Z,893.29
2018-12-05T04:32:04.457Z,893.33
2018-12-05T04:33:04.446Z,893.45
2018-12-05T04:34:04.423Z,893.50
2018-12-05T04:35:04.405Z,893.46
2018-12-05T04:36:04.529Z,893.40
2018-12-05T04:37:04.378Z,893.30
2018-12-05T04:38:04.361Z,893.18
2018-12-05T04:39:04.347Z,893.18
2018-12-05T04:40:04.324Z,893.21
2018-12-05T04:41:04.312Z,893.21
2018-12-05T04:42:04.292Z,893.21
2018-12-05T04:43:04.277Z,893.23
2018-12-05T04:44:04.265Z,893.22
2018-12-05T04:45:04.242Z,893.27
2018-12-05T04:46:04.230Z,893.30
2018-12-05T04:47:04.216Z,893.29
2018-12-05T04:48:04.190Z,893.25
2018-12-05T04:49:04.175Z,893.27
2018-12-05T04:50:04.163Z,893.24
2018-12-05T04:51:04.144Z,893.27
2018-12-05T04:52:04.126Z,893.23
2018-12-05T04:53:04.108Z,893.23
2018-12-05T04:54:04.094Z,893.18
2018-12-05T04:55:04.078Z,893.15
2018-12-05T04:56:04.061Z,893.15
2018-12-05T04:57:04.044Z,893.14
2018-12-05T04:58:04.028Z,893.13
2018-12-05T04:59:04.012Z,893.10
2018-12-05T05:00:03.996Z,893.11
2018-12-05T05:01:03.981Z,893.19
2018-12-05T05:02:03.958Z,893.23
2018-12-05T05:03:03.948Z,893.25
2018-12-05T05:04:03.923Z,893.27
2018-12-05T05:05:03.907Z,893.29
2018-12-05T05:06:03.891Z,893.31
2018-12-05T05:07:03.894Z,893.31
2018-12-05T05:08:03.860Z,893.29
2018-12-05T05:09:03.842Z,893.31
2018-12-05T05:10:03.820Z,893.32
2018-12-05T05:11:03.814Z,893.33
2018-12-05T05:12:03.792Z,893.34
2018-12-05T05:13:03.797Z,893.34
2018-12-05T05:14:03.766Z,893.31
2018-12-05T05:15:03.752Z,893.29
2018-12-05T05:16:03.732Z,893.30
2018-12-05T05:17:03.713Z,893.31
2018-12-05T05:18:03.695Z,893.29
2018-12-05T05:19:03.674Z,893.30
2018-12-05T05:20:03.659Z,893.30
2018-12-05T05:21:03.645Z,893.27
2018-12-05T05:22:03.623Z,893.28
2018-12-05T05:23:03.608Z,893.31
2018-12-05T05:24:03.594Z,893.26
2018-12-05T05:25:03.586Z,893.27
2018-12-05T05:26:03.557Z,893.27
2018-12-05T05:27:03.544Z,893.29
2018-12-05T05:28:03.528Z,893.29
2018-12-05T05:29:03.514Z,893.33
2018-12-05T05:30:03.495Z,893.35
2018-12-05T05:31:03.475Z,893.31
2018-12-05T05:32:03.460Z,893.33
2018-12-05T05:33:03.447Z,893.36
2018-12-05T05:34:03.431Z,893.35
2018-12-05T05:35:03.410Z,893.36
2018-12-05T05:36:03.402Z,893.37
2018-12-05T05:37:03.376Z,893.39
2018-12-05T05:38:03.365Z,893.39
2018-12-05T05:39:03.347Z,893.41
2018-12-05T05:40:03.323Z,893.45
2018-12-05T05:41:03.312Z,893.44
2018-12-05T05:42:03.297Z,893.49
2018-12-05T05:43:03.278Z,893.48
2018-12-05T05:44:03.262Z,893.49
2018-12-05T05:45:03.248Z,893.51
2018-12-05T05:46:03.232Z,893.52
2018-12-05T05:47:03.223Z,893.55
2018-12-05T05:48:03.199Z,893.54
2018-12-05T05:49:03.181Z,893.55
2018-12-05T05:50:03.164Z,893.56
2018-12-05T05:51:03.149Z,893.56
2018-12-05T05:52:03.130Z,893.59
2018-12-05T05:53:03.116Z,893.61
2018-12-05T05:54:03.100Z,893.58
2018-12-05T05:55:03.081Z,893.61
2018-12-05T05:56:03.067Z,893.63
2018-12-05T05:57:03.054Z,893.64
2018-12-05T05:58:03.029Z,893.63
2018-12-05T05:59:03.013Z,893.65
2018-12-05T06:00:03.002Z,893.67
2018-12-05T06:01:02.981Z,893.65
2018-12-05T06:02:02.968Z,893.62
2018-12-05T06:03:02.949Z,893.61
2018-12-05T06:04:02.938Z,893.65
2018-12-05T06:05:02.920Z,893.67
2018-12-05T06:06:02.899Z,893.67
2018-12-05T06:07:02.886Z,893.66
2018-12-05T06:08:02.864Z,893.64
2018-12-05T06:09:02.853Z,893.65
2018-12-05T06:10:02.841Z,893.66
2018-12-05T06:11:02.811Z,893.66
2018-12-05T06:12:02.795Z,893.69
2018-12-05T06:13:02.786Z,893.69
2018-12-05T06:14:02.770Z,893.71
2018-12-05T06:15:02.760Z,893.71
2018-12-05T06:16:02.742Z,893.66
2018-12-05T06:17:02.716Z,893.65
2018-12-05T06:18:02.736Z,893.67
2018-12-05T06:19:02.689Z,893.68
2018-12-05T06:20:02.669Z,893.69
2018-12-05T06:21:02.652Z,893.71
2018-12-05T06:22:02.650Z,893.76
2018-12-05T06:23:02.620Z,893.75
2018-12-05T06:24:02.601Z,893.71
2018-12-05T06:25:02.586Z,893.71
2018-12-05T06:26:02.573Z,893.71
2018-12-05T06:27:02.558Z,893.76
2018-12-05T06:28:02.543Z,893.84
2018-12-05T06:29:02.522Z,893.82
2018-12-05T06:30:02.508Z,893.81
2018-12-05T06:31:02.491Z,893.80
2018-12-05T06:32:02.479Z,893.76
2018-12-05T06:33:02.459Z,893.73
2018-12-05T06:34:02.446Z,893.71
2018-12-05T06:35:02.420Z,893.72
2018-12-05T06:36:02.406Z,893.75
2018-12-05T06:37:02.392Z,893.70
2018-12-05T06:38:02.379Z,893.69
2018-12-05T06:39:02.363Z,893.70
2018-12-05T06:40:02.348Z,893.66
2018-12-05T06:41:02.331Z,893.68
2018-12-05T06:42:02.312Z,893.71
2018-12-05T06:43:02.298Z,893.74
2018-12-05T06:44:02.278Z,893.78
2018-12-05T06:45:02.257Z,893.74
2018-12-05T06:46:02.244Z,893.75
2018-12-05T06:47:02.236Z,893.75
2018-12-05T06:48:02.290Z,893.77
2018-12-05T06:49:02.197Z,893.80
2018-12-05T06:50:02.181Z,893.77
2018-12-05T06:51:02.168Z,893.82
2018-12-05T06:52:02.140Z,893.79
2018-12-05T06:53:02.131Z,893.81
2018-12-05T06:54:02.112Z,893.87
2018-12-05T06:55:02.151Z,893.85
2018-12-05T06:56:02.089Z,893.83
2018-12-05T06:57:02.069Z,893.90
2018-12-05T06:58:02.055Z,893.88
2018-12-05T06:59:02.036Z,893.89
2018-12-05T07:00:02.016Z,893.86
2018-12-05T07:01:02.002Z,893.86
2018-12-05T07:02:01.985Z,893.88
2018-12-05T07:03:01.980Z,893.88
2018-12-05T07:04:01.951Z,893.93
2018-12-05T07:05:01.936Z,893.97
2018-12-05T07:06:01.922Z,893.97
2018-12-05T07:07:01.908Z,893.97
2018-12-05T07:08:01.882Z,893.91
2018-12-05T07:09:01.877Z,893.92
2018-12-05T07:10:01.855Z,893.91
2018-12-05T07:11:01.854Z,893.90
2018-12-05T07:12:01.829Z,893.95
2018-12-05T07:13:01.806Z,893.94
2018-12-05T07:14:01.793Z,893.98
2018-12-05T07:15:01.777Z,893.96
2018-12-05T07:16:01.755Z,894.00
2018-12-05T07:17:01.743Z,894.03
2018-12-05T07:18:01.734Z,894.03
2018-12-05T07:19:01.708Z,894.04
2018-12-05T07:20:01.691Z,894.03
2018-12-05T07:21:01.676Z,893.99
2018-12-05T07:22:01.655Z,894.00
2018-12-05T07:23:01.644Z,893.98
2018-12-05T07:24:01.630Z,893.93
2018-12-05T07:25:01.612Z,893.92
2018-12-05T07:26:01.588Z,893.91
2018-12-05T07:27:01.579Z,893.91
2018-12-05T07:28:01.560Z,893.88
2018-12-05T07:29:01.545Z,893.91
2018-12-05T07:30:01.525Z,893.90
2018-12-05T07:31:01.512Z,893.88
2018-12-05T07:32:01.501Z,893.87
2018-12-05T07:33:01.481Z,893.88
2018-12-05T07:34:01.462Z,893.88
2018-12-05T07:35:01.451Z,893.93
2018-12-05T07:36:01.438Z,893.92
2018-12-05T07:37:01.416Z,893.93
2018-12-05T07:38:01.402Z,893.87
2018-12-05T07:39:01.378Z,893.93
2018-12-05T07:40:01.366Z,893.97
2018-12-05T07:41:01.347Z,894.00
2018-12-05T07:42:01.330Z,894.06
2018-12-05T07:43:01.311Z,894.13
2018-12-05T07:44:01.296Z,894.19
2018-12-05T07:45:01.285Z,894.26
2018-12-05T07:46:01.265Z,894.29
2018-12-05T07:47:01.255Z,894.30
2018-12-05T07:48:01.233Z,894.32
2018-12-05T07:49:01.214Z,894.40
2018-12-05T07:50:01.206Z,894.46
2018-12-05T07:51:01.188Z,894.50
2018-12-05T07:52:01.174Z,894.50
2018-12-05T07:53:01.156Z,894.50
2018-12-05T07:54:01.136Z,894.46
2018-12-05T07:55:01.119Z,894.44
2018-12-05T07:56:01.112Z,894.38
2018-12-05T07:57:01.083Z,894.36
2018-12-05T07:58:01.158Z,894.32
2018-12-05T07:59:01.054Z,894.30
2018-12-05T08:00:01.041Z,894.29
2018-12-05T08:01:01.026Z,894.28
2018-12-05T08:02:01.008Z,894.29
2018-12-05T08:03:01.822Z,894.29
2018-12-05T08:04:00.971Z,894.23
2018-12-05T08:05:00.955Z,894.20
2018-12-05T08:06:00.939Z,894.16
2018-12-05T08:07:00.925Z,894.12
2018-12-05T08:08:00.910Z,894.13
2018-12-05T08:09:00.887Z,894.04
2018-12-05T08:10:00.875Z,894.08
2018-12-05T08:11:00.860Z,894.07
2018-12-05T08:12:00.842Z,894.05
2018-12-05T08:13:00.828Z,894.05
2018-12-05T08:14:00.813Z,893.99
2018-12-05T08:15:00.788Z,893.99
2018-12-05T08:16:00.780Z,893.96
2018-12-05T08:17:00.760Z,893.99
2018-12-05T08:18:00.748Z,893.97
2018-12-05T08:19:00.735Z,893.98
2018-12-05T08:20:00.714Z,893.97
2018-12-05T08:21:00.695Z,893.95
2018-12-05T08:22:00.681Z,893.92
2018-12-05T08:23:00.659Z,893.92
2018-12-05T08:24:00.645Z,893.91
2018-12-05T08:25:00.637Z,893.85
2018-12-05T08:26:00.613Z,893.87
2018-12-05T08:27:00.598Z,893.82
2018-12-05T08:28:00.595Z,893.82
2018-12-05T08:29:00.565Z,893.83
2018-12-05T08:30:00.555Z,893.80
2018-12-05T08:31:00.524Z,893.82
2018-12-05T08:32:00.516Z,893.80
2018-12-05T08:33:00.498Z,893.86
2018-12-05T08:34:00.480Z,893.87
2018-12-05T08:35:00.466Z,893.92
2018-12-05T08:36:00.449Z,893.96
2018-12-05T08:37:00.427Z,893.97
2018-12-05T08:38:00.588Z,893.97
2018-12-05T08:39:00.400Z,893.95
2018-12-05T08:40:00.381Z,893.96
2018-12-05T08:41:00.364Z,893.89
2018-12-05T08:42:00.347Z,893.95
2018-12-05T08:43:00.330Z,893.94
2018-12-05T08:44:00.318Z,893.95
2018-12-05T08:45:00.298Z,893.99
2018-12-05T08:46:00.280Z,893.99
2018-12-05T08:47:00.275Z,894.01
2018-12-05T08:48:00.250Z,893.97
2018-12-05T08:49:00.258Z,894.02
2018-12-05T08:50:00.211Z,894.00
2018-12-05T08:51:00.199Z,894.00
2018-12-05T08:52:00.192Z,894.02
2018-12-05T08:53:00.173Z,894.05
2018-12-05T08:54:00.153Z,894.06
2018-12-05T08:55:00.133Z,894.06
2018-12-05T08:56:00.125Z,894.10
2018-12-05T08:57:00.103Z,894.10
2018-12-05T08:58:00.091Z,894.09
2018-12-05T08:59:00.072Z,894.08
2018-12-05T09:00:00.056Z,894.12
2018-12-05T09:01:00.052Z,894.08
2018-12-05T09:02:00.026Z,894.10
2018-12-05T09:03:00.005Z,894.09
2018-12-05T09:03:59.991Z,894.09
2018-12-05T09:04:59.979Z,894.11
2018-12-05T09:05:59.957Z,894.02
2018-12-05T09:06:59.945Z,894.02
2018-12-05T09:07:59.920Z,894.04
2018-12-05T09:08:59.910Z,894.06
2018-12-05T09:09:59.894Z,894.03
2018-12-05T09:10:59.870Z,894.05
2018-12-05T09:11:59.864Z,894.07
2018-12-05T09:12:59.929Z,894.03
2018-12-05T09:13:59.844Z,894.06
2018-12-05T09:14:59.809Z,894.01
2018-12-05T09:15:59.803Z,894.02
2018-12-05T09:16:59.781Z,894.05
2018-12-05T09:17:59.767Z,894.14
2018-12-05T09:18:59.743Z,894.13
2018-12-05T09:19:59.733Z,894.15
2018-12-05T09:20:59.714Z,894.25
2018-12-05T09:21:59.695Z,894.30
2018-12-05T09:22:59.697Z,894.33
2018-12-05T09:23:59.667Z,894.38
2018-12-05T09:24:59.644Z,894.38
2018-12-05T09:25:59.634Z,894.45
2018-12-05T09:26:59.617Z,894.48
2018-12-05T09:27:59.601Z,894.50
2018-12-05T09:28:59.588Z,894.49
2018-12-05T09:29:59.578Z,894.50
2018-12-05T09:30:59.557Z,894.52
2018-12-05T09:31:59.541Z,894.57
2018-12-05T09:32:59.527Z,894.60
2018-12-05T09:33:59.505Z,894.67
2018-12-05T09:34:59.490Z,894.63
2018-12-05T09:35:59.479Z,894.63
2018-12-05T09:36:59.457Z,894.62
2018-12-05T09:37:59.440Z,894.68
2018-12-05T09:38:59.427Z,894.65
2018-12-05T09:39:59.416Z,894.70
2018-12-05T09:40:59.397Z,894.68
2018-12-05T09:41:59.383Z,894.71
2018-12-05T09:42:59.362Z,894.67
2018-12-05T09:43:59.354Z,894.64
2018-12-05T09:44:59.329Z,894.64
2018-12-05T09:45:59.309Z,894.63
2018-12-05T09:46:59.299Z,894.61
2018-12-05T09:47:59.283Z,894.71
2018-12-05T09:48:59.268Z,894.72
2018-12-05T09:49:59.254Z,894.72
2018-12-05T09:50:59.236Z,894.74
2018-12-05T09:51:59.212Z,894.75
2018-12-05T09:52:59.203Z,894.74
2018-12-05T09:53:59.192Z,894.72
2018-12-05T09:54:59.171Z,894.78
2018-12-05T09:55:59.158Z,894.82
2018-12-05T09:56:59.143Z,894.82
2018-12-05T09:57:59.121Z,894.83
2018-12-05T09:58:59.115Z,894.80
2018-12-05T09:59:59.091Z,894.73
2018-12-05T10:00:59.075Z,894.67
2018-12-05T10:01:59.064Z,894.58
2018-12-05T10:02:59.046Z,894.57
2018-12-05T10:03:59.029Z,894.50
2018-12-05T10:04:59.013Z,894.47
2018-12-05T10:05:58.996Z,894.46
2018-12-05T10:06:58.979Z,894.49
2018-12-05T10:07:58.972Z,894.47
2018-12-05T10:08:58.953Z,894.50
2018-12-05T10:09:58.941Z,894.49
2018-12-05T10:10:58.920Z,894.44
2018-12-05T10:11:58.903Z,894.42
2018-12-05T10:12:58.882Z,894.39
2018-12-05T10:13:58.872Z,894.41
2018-12-05T10:14:58.850Z,894.35
2018-12-05T10:15:58.840Z,894.39
2018-12-05T10:16:58.824Z,894.37
2018-12-05T10:17:58.806Z,894.42
2018-12-05T10:18:58.793Z,894.38
2018-12-05T10:19:58.773Z,894.36
2018-12-05T10:20:58.758Z,894.32
2018-12-05T10:21:58.747Z,894.34
2018-12-05T10:22:58.727Z,894.30
2018-12-05T10:23:58.709Z,894.29
2018-12-05T10:24:58.693Z,894.23
2018-12-05T10:25:58.686Z,894.21
2018-12-05T10:26:58.665Z,894.20
2018-12-05T10:27:58.654Z,894.18
2018-12-05T10:28:58.635Z,894.13
2018-12-05T10:29:58.618Z,894.11
2018-12-05T10:30:58.604Z,894.14
2018-12-05T10:31:58.585Z,894.13
2018-12-05T10:32:58.570Z,894.09
2018-12-05T10:33:58.551Z,894.02
2018-12-05T10:34:58.543Z,894.02
2018-12-05T10:35:58.526Z,894.00
2018-12-05T10:36:58.507Z,894.04
2018-12-05T10:37:58.489Z,893.96
2018-12-05T10:38:58.474Z,893.99
2018-12-05T10:39:58.458Z,893.95
2018-12-05T10:40:58.441Z,893.94
2018-12-05T10:41:58.431Z,893.85
2018-12-05T10:42:58.408Z,893.81
2018-12-05T10:43:58.399Z,893.81
2018-12-05T10:44:58.380Z,893.80
2018-12-05T10:45:58.364Z,893.74
2018-12-05T10:46:58.350Z,893.76
2018-12-05T10:47:58.331Z,893.74
2018-12-05T10:48:58.323Z,893.74
2018-12-05T10:49:58.296Z,893.69
2018-12-05T10:50:58.283Z,893.68
2018-12-05T10:51:58.263Z,893.66
2018-12-05T10:52:58.251Z,893.65
2018-12-05T10:53:58.235Z,893.59
2018-12-05T10:54:58.212Z,893.56
2018-12-05T10:55:58.201Z,893.48
2018-12-05T10:56:58.188Z,893.48
2018-12-05T10:57:58.171Z,893.49
2018-12-05T10:58:58.156Z,893.45
2018-12-05T10:59:58.146Z,893.42
2018-12-05T11:00:58.118Z,893.42
2018-12-05T11:01:58.110Z,893.34
2018-12-05T11:02:58.094Z,893.36
2018-12-05T11:03:58.076Z,893.30
2018-12-05T11:04:58.061Z,893.29
2018-12-05T11:05:58.045Z,893.30
2018-12-05T11:06:58.032Z,893.31
2018-12-05T11:07:58.013Z,893.31
2018-12-05T11:08:57.999Z,893.32
2018-12-05T11:09:57.981Z,893.31
2018-12-05T11:10:57.962Z,893.31
2018-12-05T11:11:57.950Z,893.28
2018-12-05T11:12:57.934Z,893.31
2018-12-05T11:13:57.918Z,893.28
2018-12-05T11:14:57.903Z,893.23
2018-12-05T11:15:57.890Z,893.27
2018-12-05T11:16:57.872Z,893.25
2018-12-05T11:17:57.911Z,893.23
2018-12-05T11:18:57.845Z,893.23
2018-12-05T11:19:57.826Z,893.23
2018-12-05T11:20:57.805Z,893.20
2018-12-05T11:21:57.790Z,893.22
2018-12-05T11:22:57.773Z,893.20
2018-12-05T11:23:57.773Z,893.20
2018-12-05T11:24:57.759Z,893.18
2018-12-05T11:25:57.732Z,893.22
2018-12-05T11:26:57.714Z,893.21
2018-12-05T11:27:57.703Z,893.21
2018-12-05T11:28:57.679Z,893.23
2018-12-05T11:29:57.668Z,893.19
2018-12-05T11:30:57.649Z,893.16
2018-12-05T11:31:57.646Z,893.15
2018-12-05T11:32:57.623Z,893.20
2018-12-05T11:33:57.605Z,893.23
2018-12-05T11:34:57.591Z,893.17
2018-12-05T11:35:57.572Z,893.18
2018-12-05T11:36:57.562Z,893.17
2018-12-05T11:37:57.537Z,893.15
2018-12-05T11:38:57.542Z,893.20
2018-12-05T11:39:57.516Z,893.18
2018-12-05T11:40:57.500Z,893.17
2018-12-05T11:41:57.491Z,893.17
2018-12-05T11:42:57.467Z,893.13
2018-12-05T11:43:57.454Z,893.10
2018-12-05T11:44:57.439Z,893.10
2018-12-05T11:45:57.458Z,893.14
2018-12-05T11:46:57.406Z,893.08
2018-12-05T11:47:57.453Z,893.06
2018-12-05T11:48:57.377Z,893.06
2018-12-05T11:49:57.361Z,893.04
2018-12-05T11:50:57.349Z,893.05
2018-12-05T11:51:57.324Z,893.06
2018-12-05T11:52:57.316Z,893.02
2018-12-05T11:53:57.303Z,893.01
2018-12-05T11:54:57.387Z,893.00
2018-12-05T11:55:57.271Z,892.94
2018-12-05T11:56:57.256Z,892.94
2018-12-05T11:57:57.240Z,892.94
2018-12-05T11:58:57.227Z,892.91
2018-12-05T11:59:57.225Z,892.88
2018-12-05T12:00:57.195Z,892.86
2018-12-05T12:01:57.177Z,892.88
2018-12-05T12:02:57.166Z,892.86
2018-12-05T12:03:57.142Z,892.86
2018-12-05T12:04:57.132Z,892.82
2018-12-05T12:05:57.116Z,892.84
2018-12-05T12:06:57.108Z,892.83
2018-12-05T12:07:57.088Z,892.82
2018-12-05T12:08:57.131Z,892.79
2018-12-05T12:09:57.060Z,892.76
2018-12-05T12:10:57.045Z,892.78
2018-12-05T12:11:57.035Z,892.77
2018-12-05T12:12:57.013Z,892.77
2018-12-05T12:13:57.005Z,892.75
2018-12-05T12:14:56.981Z,892.73
2018-12-05T12:15:56.969Z,892.73
2018-12-05T12:16:56.951Z,892.76
2018-12-05T12:17:56.938Z,892.73
2018-12-05T12:18:56.925Z,892.70
2018-12-05T12:19:56.912Z,892.72
2018-12-05T12:20:56.896Z,892.68
2018-12-05T12:21:56.883Z,892.69
2018-12-05T12:22:56.952Z,892.66
2018-12-05T12:23:56.847Z,892.69
2018-12-05T12:24:56.839Z,892.67
2018-12-05T12:25:56.835Z,892.67
2018-12-05T12:26:56.803Z,892.64
2018-12-05T12:27:56.801Z,892.65